Time;durP1;ratioP1;P1;durP2;ratioP2;P2;SDS_P1;SDS_P2;PMS_P1;PMS_P2;Temp;Humidity;BMP_temperature;BMP_pressure;BME280_temperature;BME280_humidity;BME280_pressure;Samples;Min_cycle;Max_cycle;Signal;HPM_P1;HPM_P2
2022/03/01 00:00:40;;;;;;;26.90;8.00;;;;;;;0.32;100.00;99410.22;4987442;28;20117;-55
2022/03/01 00:03:06;;;;;;;31.83;9.55;;;;;;;0.26;100.00;99408.38;4986544;28;20022;-54
2022/03/01 00:05:32;;;;;;;31.00;8.95;;;;;;;0.15;100.00;99413.28;4984396;28;20096;-56
2022/03/01 00:07:57;;;;;;;32.88;9.77;;;;;;;-0.12;100.00;99404.91;4988644;28;20029;-54
2022/03/01 00:10:23;;;;;;;31.17;8.77;;;;;;;-0.21;100.00;99403.00;4987387;28;20411;-54
2022/03/01 00:12:48;;;;;;;29.05;8.85;;;;;;;-0.07;100.00;99398.22;4985664;28;20034;-54
2022/03/01 00:15:14;;;;;;;28.63;8.70;;;;;;;-0.13;100.00;99400.59;4986224;28;20034;-54
2022/03/01 00:17:39;;;;;;;30.67;9.55;;;;;;;-0.09;100.00;99403.28;4988159;28;20078;-55
2022/03/01 00:20:05;;;;;;;36.15;9.57;;;;;;;-0.16;100.00;99396.28;4985730;28;20125;-54
2022/03/01 00:22:30;;;;;;;33.55;9.57;;;;;;;0.01;100.00;99399.25;4989348;28;20028;-53
2022/03/01 00:24:56;;;;;;;35.80;9.85;;;;;;;-0.21;100.00;99396.16;4989269;28;20022;-54
2022/03/01 00:27:21;;;;;;;34.95;9.65;;;;;;;-0.24;100.00;99400.34;4987974;28;20050;-55
2022/03/01 00:29:47;;;;;;;31.27;9.63;;;;;;;-0.26;100.00;99402.88;4986975;28;20018;-56
2022/03/01 00:32:12;;;;;;;29.73;8.63;;;;;;;-0.50;100.00;99399.69;4986825;28;20061;-54
2022/03/01 00:34:38;;;;;;;32.15;9.63;;;;;;;-0.29;100.00;99402.81;4987825;28;20809;-54
2022/03/01 00:37:03;;;;;;;24.70;8.38;;;;;;;-0.22;100.00;99407.25;4985773;28;20042;-54
2022/03/01 00:39:29;;;;;;;26.80;8.60;;;;;;;-0.50;100.00;99400.53;4987911;28;20030;-54
2022/03/01 00:41:54;;;;;;;28.70;8.85;;;;;;;-0.54;100.00;99400.44;4985394;28;20042;-55
2022/03/01 00:44:19;;;;;;;31.50;9.10;;;;;;;-0.52;100.00;99401.34;4988282;28;20227;-55
2022/03/01 00:46:45;;;;;;;27.67;8.68;;;;;;;-0.36;100.00;99395.78;4988613;28;20041;-54
2022/03/01 00:49:10;;;;;;;31.45;9.18;;;;;;;-0.37;100.00;99394.03;4988116;28;20041;-54
2022/03/01 00:51:36;;;;;;;34.38;9.75;;;;;;;-0.57;100.00;99395.22;4987196;28;20045;-54
2022/03/01 00:54:01;;;;;;;28.02;9.25;;;;;;;-0.69;100.00;99388.09;4986525;28;20047;-53
2022/03/01 00:56:27;;;;;;;34.03;9.35;;;;;;;-0.43;100.00;99379.38;4986248;28;20121;-54
2022/03/01 00:58:52;;;;;;;31.67;9.30;;;;;;;-0.61;100.00;99384.03;4984047;28;20050;-55
2022/03/01 01:01:17;;;;;;;26.77;8.52;;;;;;;-0.66;100.00;99381.38;4985817;28;20300;-55
2022/03/01 01:03:43;;;;;;;32.70;8.45;;;;;;;-0.50;100.00;99372.34;4986522;28;20083;-54
2022/03/01 01:06:08;;;;;;;26.17;8.57;;;;;;;-0.46;100.00;99373.28;4986738;28;20492;-55
2022/03/01 01:08:34;;;;;;;30.08;9.00;;;;;;;-0.64;100.00;99379.69;4984486;28;20088;-54
2022/03/01 01:10:59;;;;;;;31.42;8.80;;;;;;;-0.37;100.00;99363.28;4985344;28;20091;-54
2022/03/01 01:13:25;;;;;;;28.42;8.75;;;;;;;-0.35;100.00;99371.00;4986104;28;20133;-55
2022/03/01 01:15:51;;;;;;;33.88;8.52;;;;;;;-0.55;100.00;99373.97;4987386;28;20030;-54
2022/03/01 01:18:16;;;;;;;30.20;8.48;;;;;;;-0.47;100.00;99375.00;4987892;28;20034;-55
2022/03/01 01:20:42;;;;;;;32.47;9.27;;;;;;;-0.25;100.00;99378.97;4989026;28;20042;-55
2022/03/01 01:23:07;;;;;;;39.20;8.85;;;;;;;-0.49;100.00;99362.97;4984113;28;20040;-54
2022/03/01 01:25:34;;;;;;;28.65;8.07;;;;;;;-0.35;100.00;99364.19;4986160;28;20038;-54
2022/03/01 01:28:00;;;;;;;30.10;7.80;;;;;;;-0.23;100.00;99368.75;4983159;28;20127;-54
2022/03/01 01:30:29;;;;;;;32.83;8.95;;;;;;;0.05;100.00;99366.84;4987422;28;20117;-54
2022/03/01 01:32:55;;;;;;;24.25;6.32;;;;;;;0.04;97.02;99365.97;4985405;28;20054;-54
2022/03/01 01:35:23;;;;;;;27.30;7.40;;;;;;;0.10;100.00;99365.25;4985397;28;20554;-55
2022/03/01 01:37:50;;;;;;;29.30;8.65;;;;;;;-0.17;86.82;99360.34;4988113;28;20093;-55
2022/03/01 01:40:21;;;;;;;29.38;7.95;;;;;;;-0.21;93.33;99359.38;4987234;28;20058;-54
2022/03/01 01:42:46;;;;;;;34.58;8.98;;;;;;;-0.33;88.10;99354.84;4986982;28;20548;-54
2022/03/01 01:45:12;;;;;;;30.63;8.60;;;;;;;0.17;100.00;99357.72;4993742;28;20048;-54
2022/03/01 01:47:38;;;;;;;33.25;8.80;;;;;;;-0.18;88.00;99350.88;4987297;28;20527;-54
2022/03/01 01:50:06;;;;;;;29.17;8.48;;;;;;;0.03;98.36;99351.41;4986407;28;20647;-52
2022/03/01 01:52:32;;;;;;;29.23;8.65;;;;;;;-0.10;100.00;99351.97;4986272;28;20025;-55
2022/03/01 01:54:57;;;;;;;37.38;9.27;;;;;;;-0.22;89.86;99348.28;4986062;28;20036;-54
2022/03/01 01:57:24;;;;;;;35.67;8.95;;;;;;;-0.27;89.58;99354.97;4986817;28;20402;-55
2022/03/01 01:59:51;;;;;;;29.42;8.60;;;;;;;-0.14;82.56;99350.16;4985015;28;20032;-55
2022/03/01 02:02:19;;;;;;;34.67;8.70;;;;;;;-0.15;96.46;99354.41;4984880;28;20053;-55
2022/03/01 02:04:45;;;;;;;33.33;8.75;;;;;;;-0.14;100.00;99351.00;4984101;28;20117;-54
2022/03/01 02:07:11;;;;;;;29.40;8.35;;;;;;;-0.19;98.92;99344.91;4986565;28;20064;-53
2022/03/01 02:09:37;;;;;;;31.25;8.13;;;;;;;-0.03;98.43;99348.69;4985448;28;20099;-54
2022/03/01 02:12:04;;;;;;;37.70;9.68;;;;;;;-0.23;97.22;99346.53;4986626;28;20038;-55
2022/03/01 02:14:30;;;;;;;28.05;8.15;;;;;;;-0.14;99.62;99339.91;4985171;28;20517;-54
2022/03/01 02:16:57;;;;;;;32.33;8.07;;;;;;;-0.04;94.74;99341.81;4985443;28;20053;-55
2022/03/01 02:19:23;;;;;;;31.98;8.20;;;;;;;0.05;91.07;99331.78;4985285;28;20056;-56
2022/03/01 02:21:55;;;;;;;26.75;8.15;;;;;;;0.08;100.00;99336.97;4985935;28;20046;-54
2022/03/01 02:24:21;;;;;;;29.92;7.47;;;;;;;-0.03;100.00;99335.88;4983793;28;20022;-54
2022/03/01 02:26:46;;;;;;;31.52;8.82;;;;;;;-0.05;100.00;99334.97;4992811;28;20042;-54
2022/03/01 02:29:12;;;;;;;27.65;8.20;;;;;;;-0.08;100.00;99332.34;4987401;28;20034;-54
2022/03/01 02:31:38;;;;;;;27.50;7.63;;;;;;;0.11;100.00;99326.81;4984387;28;20046;-53
2022/03/01 02:34:04;;;;;;;26.75;7.60;;;;;;;0.08;99.77;99331.84;4987970;28;20405;-54
2022/03/01 02:36:30;;;;;;;35.10;8.88;;;;;;;0.05;100.00;99331.78;4986171;28;20500;-56
2022/03/01 02:38:56;;;;;;;31.75;7.88;;;;;;;-0.02;92.62;99325.66;4984457;28;20022;-56
2022/03/01 02:41:24;;;;;;;23.90;7.18;;;;;;;-0.44;90.85;99328.94;4984820;28;20133;-55
2022/03/01 02:43:50;;;;;;;24.27;8.02;;;;;;;-0.37;100.00;99327.38;4983007;28;20034;-56
2022/03/01 02:46:15;;;;;;;28.25;8.43;;;;;;;-0.62;100.00;99328.50;4984138;28;20091;-55
2022/03/01 02:48:42;;;;;;;30.83;8.68;;;;;;;-0.68;100.00;99326.63;4985137;28;20884;-56
2022/03/01 02:51:07;;;;;;;33.17;9.20;;;;;;;-0.84;100.00;99327.06;4986381;28;20045;-56
2022/03/01 02:53:34;;;;;;;33.20;8.88;;;;;;;-1.08;100.00;99330.72;4985400;28;20026;-55
2022/03/01 02:56:00;;;;;;;29.67;8.43;;;;;;;-1.01;100.00;99327.50;4984831;28;20076;-55
2022/03/01 02:58:25;;;;;;;32.65;9.10;;;;;;;-1.04;100.00;99324.84;4983851;28;20431;-55
2022/03/01 03:00:51;;;;;;;34.22;9.07;;;;;;;-1.24;100.00;99323.44;4984562;28;20542;-57
2022/03/01 03:03:16;;;;;;;38.58;9.32;;;;;;;-1.06;100.00;99318.81;4984761;28;20026;-55
2022/03/01 03:05:42;;;;;;;33.08;8.80;;;;;;;-1.13;100.00;99327.16;4983827;28;20375;-56
2022/03/01 03:08:07;;;;;;;22.92;7.65;;;;;;;-1.09;100.00;99325.56;4984526;28;20050;-55
2022/03/01 03:10:33;;;;;;;31.90;9.00;;;;;;;-1.17;100.00;99330.47;4984371;28;20041;-56
2022/03/01 03:13:00;;;;;;;26.05;7.90;;;;;;;-1.20;100.00;99325.25;4984853;28;20695;-56
2022/03/01 03:15:27;;;;;;;31.33;8.75;;;;;;;-1.14;100.00;99325.41;4983173;28;20034;-55
2022/03/01 03:17:53;;;;;;;34.00;8.85;;;;;;;-1.10;100.00;99327.25;4985133;28;20068;-56
2022/03/01 03:20:18;;;;;;;30.48;8.60;;;;;;;-1.25;100.00;99334.50;4985147;28;20030;-56
2022/03/01 03:22:43;;;;;;;29.60;8.77;;;;;;;-1.30;100.00;99330.97;4985274;28;20027;-55
2022/03/01 03:25:09;;;;;;;35.80;8.95;;;;;;;-1.37;100.00;99328.22;4981902;28;20079;-55
2022/03/01 03:27:36;;;;;;;32.33;8.90;;;;;;;-1.30;100.00;99323.28;4984919;28;20022;-56
2022/03/01 03:30:03;;;;;;;27.80;8.48;;;;;;;-1.34;100.00;99321.44;4987186;28;20103;-56
2022/03/01 03:32:29;;;;;;;30.23;9.38;;;;;;;-1.51;100.00;99321.84;4985429;28;20050;-55
2022/03/01 03:34:54;;;;;;;38.58;9.43;;;;;;;-1.51;100.00;99316.72;4983728;28;20076;-55
2022/03/01 03:37:20;;;;;;;26.25;8.52;;;;;;;-1.47;100.00;99316.00;4985461;28;20033;-55
2022/03/01 03:39:45;;;;;;;34.75;9.07;;;;;;;-1.25;100.00;99316.56;4984960;28;20191;-56
2022/03/01 03:42:11;;;;;;;28.20;8.38;;;;;;;-1.21;100.00;99321.84;4982471;28;20039;-55
2022/03/01 03:44:38;;;;;;;30.38;8.52;;;;;;;-1.29;100.00;99325.88;4985821;28;20029;-55
2022/03/01 03:47:04;;;;;;;30.15;7.78;;;;;;;-1.30;100.00;99324.16;4984138;28;20030;-55
2022/03/01 03:49:29;;;;;;;27.50;8.10;;;;;;;-1.21;100.00;99319.28;4984044;28;20097;-56
2022/03/01 03:51:55;;;;;;;29.58;8.00;;;;;;;-1.07;100.00;99322.19;4990382;28;20125;-56
2022/03/01 03:54:21;;;;;;;24.40;7.78;;;;;;;-1.10;100.00;99317.00;4990855;28;20045;-55
2022/03/01 03:56:46;;;;;;;32.15;8.20;;;;;;;-1.00;100.00;99325.81;4988069;28;20038;-55
2022/03/01 03:59:11;;;;;;;27.02;7.22;;;;;;;-0.96;100.00;99325.03;4988004;28;20088;-56
2022/03/01 04:01:37;;;;;;;27.40;8.00;;;;;;;-1.08;100.00;99329.88;4988967;28;20714;-56
2022/03/01 04:04:03;;;;;;;29.88;7.00;;;;;;;-0.87;100.00;99321.88;4987574;28;20514;-55
2022/03/01 04:06:28;;;;;;;34.38;9.23;;;;;;;-0.91;100.00;99327.75;4987234;28;20046;-56
2022/03/01 04:08:54;;;;;;;26.70;6.82;;;;;;;-0.64;100.00;99323.31;4988753;28;20502;-55
2022/03/01 04:11:19;;;;;;;22.80;6.43;;;;;;;-0.67;100.00;99325.78;4986482;28;20073;-56
2022/03/01 04:13:44;;;;;;;28.42;8.10;;;;;;;-0.45;100.00;99324.63;4986666;28;20030;-56
2022/03/01 04:16:10;;;;;;;25.27;7.70;;;;;;;-0.71;100.00;99326.56;4995212;28;20042;-55
2022/03/01 04:18:35;;;;;;;29.30;8.50;;;;;;;-0.74;100.00;99325.59;4987424;28;20389;-56
2022/03/01 04:21:01;;;;;;;33.70;9.20;;;;;;;-1.08;100.00;99329.88;4987428;28;20496;-55
2022/03/01 04:23:27;;;;;;;32.53;8.82;;;;;;;-1.34;100.00;99324.00;4986378;28;20058;-56
2022/03/01 04:25:53;;;;;;;35.92;10.27;;;;;;;-1.40;100.00;99324.69;4985822;28;20030;-56
2022/03/01 04:28:19;;;;;;;28.20;8.90;;;;;;;-1.60;100.00;99329.25;4987712;28;20131;-56
2022/03/01 04:30:44;;;;;;;29.10;9.02;;;;;;;-1.45;100.00;99324.59;4986654;28;20556;-56
2022/03/01 04:33:10;;;;;;;37.60;9.23;;;;;;;-1.40;100.00;99323.03;4985977;28;20049;-54
2022/03/01 04:35:35;;;;;;;29.02;8.90;;;;;;;-1.54;100.00;99329.44;4985214;28;20035;-54
2022/03/01 04:38:01;;;;;;;35.08;9.05;;;;;;;-1.40;100.00;99332.38;4986288;28;20036;-53
2022/03/01 04:40:26;;;;;;;31.05;8.48;;;;;;;-1.53;100.00;99328.59;4985351;28;20042;-53
2022/03/01 04:42:52;;;;;;;27.10;7.80;;;;;;;-1.44;100.00;99331.44;4985697;28;20085;-54
2022/03/01 04:45:17;;;;;;;39.28;10.55;;;;;;;-1.68;100.00;99333.28;4983663;28;20570;-53
2022/03/01 04:47:43;;;;;;;33.08;9.10;;;;;;;-1.87;100.00;99335.31;4987259;28;20543;-53
2022/03/01 04:50:09;;;;;;;36.88;9.70;;;;;;;-1.80;100.00;99332.13;4986933;28;20149;-52
2022/03/01 04:52:35;;;;;;;30.80;9.05;;;;;;;-1.72;100.00;99339.16;4987033;28;20026;-53
2022/03/01 04:55:01;;;;;;;30.38;9.00;;;;;;;-1.87;100.00;99334.44;4986385;28;20227;-55
2022/03/01 04:57:26;;;;;;;29.58;8.88;;;;;;;-1.85;100.00;99328.53;4984987;28;20045;-53
2022/03/01 04:59:52;;;;;;;30.90;8.85;;;;;;;-1.83;100.00;99323.47;4987171;28;20114;-54
2022/03/01 05:02:18;;;;;;;33.58;8.68;;;;;;;-1.58;100.00;99328.50;4984048;28;20046;-54
2022/03/01 05:04:43;;;;;;;36.35;9.38;;;;;;;-1.63;100.00;99330.03;4985556;28;20034;-54
2022/03/01 05:07:09;;;;;;;31.38;9.43;;;;;;;-1.77;100.00;99334.75;4987797;28;20046;-53
2022/03/01 05:09:35;;;;;;;35.30;9.02;;;;;;;-1.51;100.00;99331.22;4984505;28;20050;-53
2022/03/01 05:12:00;;;;;;;37.83;9.65;;;;;;;-1.69;100.00;99336.66;4987000;28;20121;-53
2022/03/01 05:14:25;;;;;;;33.65;9.68;;;;;;;-1.65;100.00;99341.94;4987022;28;20045;-53
2022/03/01 05:16:51;;;;;;;28.77;8.73;;;;;;;-1.56;100.00;99342.19;4986834;28;20034;-53
2022/03/01 05:19:16;;;;;;;33.15;9.15;;;;;;;-1.62;100.00;99342.03;4985072;28;20030;-54
2022/03/01 05:21:42;;;;;;;32.58;9.10;;;;;;;-1.63;100.00;99339.41;4984987;28;20397;-54
2022/03/01 05:24:08;;;;;;;29.88;9.15;;;;;;;-1.75;100.00;99334.78;4985442;28;20205;-53
2022/03/01 05:26:34;;;;;;;30.73;9.23;;;;;;;-1.77;100.00;99332.19;4985435;28;20575;-54
2022/03/01 05:29:00;;;;;;;28.30;8.38;;;;;;;-1.78;100.00;99345.81;4988248;28;20456;-53
2022/03/01 05:31:26;;;;;;;29.85;8.55;;;;;;;-1.87;100.00;99335.31;4979686;28;21472;-54
2022/03/01 05:33:52;;;;;;;30.13;8.95;;;;;;;-1.61;100.00;99342.88;4987066;28;20053;-53
2022/03/01 05:36:18;;;;;;;27.02;8.65;;;;;;;-1.69;100.00;99350.34;4985167;28;20038;-53
2022/03/01 05:38:44;;;;;;;33.72;9.23;;;;;;;-1.50;100.00;99349.19;4985634;28;20752;-56
2022/03/01 05:41:09;;;;;;;28.50;8.68;;;;;;;-1.54;100.00;99349.91;4983929;28;20042;-54
2022/03/01 05:43:36;;;;;;;37.00;9.65;;;;;;;-1.73;100.00;99345.94;4983155;28;20026;-53
2022/03/01 05:46:02;;;;;;;39.70;10.32;;;;;;;-1.84;100.00;99349.88;4983814;28;20097;-53
2022/03/01 05:48:28;;;;;;;30.63;9.90;;;;;;;-2.33;100.00;99346.66;4985521;28;20031;-53
2022/03/01 05:50:54;;;;;;;41.10;10.63;;;;;;;-2.13;100.00;99343.03;4984387;28;20038;-54
2022/03/01 05:53:20;;;;;;;35.13;9.77;;;;;;;-2.02;100.00;99345.06;4986806;28;20054;-54
2022/03/01 05:55:45;;;;;;;37.47;9.35;;;;;;;-2.11;100.00;99339.66;4983873;28;20042;-53
2022/03/01 05:58:11;;;;;;;30.65;9.15;;;;;;;-1.88;100.00;99346.34;4985976;28;20022;-53
2022/03/01 06:00:37;;;;;;;34.72;9.20;;;;;;;-2.04;100.00;99346.69;4985066;28;20085;-53
2022/03/01 06:03:02;;;;;;;33.58;8.77;;;;;;;-2.04;100.00;99349.25;4988094;28;20026;-53
2022/03/01 06:05:28;;;;;;;30.83;8.63;;;;;;;-2.00;100.00;99343.44;4983757;28;20129;-53
2022/03/01 06:07:55;;;;;;;36.20;9.77;;;;;;;-2.05;100.00;99348.38;4985374;28;20033;-53
2022/03/01 06:10:21;;;;;;;32.55;8.85;;;;;;;-1.91;100.00;99348.84;4986355;28;20396;-53
2022/03/01 06:12:47;;;;;;;30.60;8.90;;;;;;;-1.70;100.00;99342.63;4985752;28;20385;-56
2022/03/01 06:15:13;;;;;;;30.75;8.40;;;;;;;-1.94;100.00;99351.28;4983700;28;20018;-54
2022/03/01 06:17:39;;;;;;;33.72;9.27;;;;;;;-1.61;100.00;99348.88;4985219;28;20464;-53
2022/03/01 06:20:05;;;;;;;36.40;9.30;;;;;;;-1.81;100.00;99347.41;4984037;28;20022;-53
2022/03/01 06:22:31;;;;;;;30.75;8.90;;;;;;;-1.45;100.00;99362.09;4984449;28;20018;-53
2022/03/01 06:24:57;;;;;;;49.88;11.63;;;;;;;-0.84;100.00;99352.69;4981416;28;20033;-53
2022/03/01 06:27:23;;;;;;;27.50;9.13;;;;;;;-0.56;100.00;99343.16;4986262;28;20496;-54
2022/03/01 06:29:48;;;;;;;32.67;9.15;;;;;;;-0.78;100.00;99355.41;4985117;28;20160;-53
2022/03/01 06:32:14;;;;;;;32.03;10.27;;;;;;;-0.67;100.00;99346.31;4984877;28;20121;-53
2022/03/01 06:34:40;;;;;;;27.35;8.88;;;;;;;-0.12;100.00;99348.50;4984187;28;20038;-54
2022/03/01 06:37:12;;;;;;;30.08;9.20;;;;;;;-1.11;100.00;99353.69;4986434;28;20035;-53
2022/03/01 06:39:38;;;;;;;32.75;9.32;;;;;;;-0.31;100.00;99357.41;4985402;28;20133;-54
2022/03/01 06:42:03;;;;;;;32.05;8.80;;;;;;;0.47;100.00;99346.38;4986686;28;20099;-53
2022/03/01 06:44:29;;;;;;;30.95;8.38;;;;;;;0.85;96.55;99355.72;4985988;28;20037;-53
2022/03/01 06:46:54;;;;;;;30.73;8.55;;;;;;;3.11;88.59;99359.16;4978350;28;20038;-54
2022/03/01 06:49:19;;;;;;;30.17;8.88;;;;;;;3.51;79.14;99356.09;4985438;28;20076;-56
2022/03/01 06:51:45;;;;;;;25.98;8.38;;;;;;;4.19;70.90;99365.22;4984199;28;20041;-55
2022/03/01 06:54:10;;;;;;;28.38;8.70;;;;;;;4.89;72.21;99358.69;4986661;28;20029;-53
2022/03/01 06:56:35;;;;;;;27.42;8.70;;;;;;;4.02;65.85;99363.38;4987027;28;20295;-53
2022/03/01 06:59:01;;;;;;;23.15;8.50;;;;;;;4.43;61.41;99370.56;4984895;28;20642;-54
2022/03/01 07:01:27;;;;;;;27.70;9.00;;;;;;;5.86;58.25;99367.47;4983056;28;20200;-54
2022/03/01 07:03:53;;;;;;;21.92;8.15;;;;;;;5.15;60.54;99364.81;4985546;28;20120;-53
2022/03/01 07:06:18;;;;;;;27.33;8.45;;;;;;;4.86;58.31;99363.88;4983009;28;20065;-54
2022/03/01 07:08:44;;;;;;;24.33;8.90;;;;;;;3.80;60.60;99376.97;4985076;28;20056;-54
2022/03/01 07:11:09;;;;;;;19.02;8.02;;;;;;;3.51;57.99;99372.44;4984296;28;20663;-52
2022/03/01 07:13:35;;;;;;;24.88;8.48;;;;;;;3.83;62.67;99369.28;4983964;28;20029;-55
2022/03/01 07:16:00;;;;;;;25.95;8.20;;;;;;;4.20;80.02;99372.13;4982922;28;20039;-53
2022/03/01 07:18:25;;;;;;;33.63;9.35;;;;;;;3.69;74.68;99365.72;4986884;28;20026;-53
2022/03/01 07:20:51;;;;;;;30.17;8.85;;;;;;;3.24;68.01;99376.47;4987869;28;20550;-53
2022/03/01 07:23:16;;;;;;;28.08;8.65;;;;;;;2.09;64.58;99368.13;4983145;28;20022;-53
2022/03/01 07:25:42;;;;;;;31.00;8.13;;;;;;;1.43;65.17;99368.75;4985142;28;20439;-53
2022/03/01 07:28:07;;;;;;;34.58;9.00;;;;;;;1.90;65.03;99372.13;4989500;28;20022;-53
2022/03/01 07:30:33;;;;;;;30.48;8.82;;;;;;;2.42;65.43;99364.31;4987747;28;20447;-53
2022/03/01 07:32:59;;;;;;;37.60;8.73;;;;;;;2.41;64.89;99365.16;4988033;28;20030;-54
2022/03/01 07:35:25;;;;;;;25.02;7.70;;;;;;;2.07;63.42;99364.66;4984648;28;20049;-53
2022/03/01 07:37:51;;;;;;;30.40;8.20;;;;;;;4.83;58.25;99360.41;4987869;28;20428;-55
2022/03/01 07:40:19;;;;;;;30.25;8.23;;;;;;;6.65;55.14;99359.63;4988254;28;20018;-53
2022/03/01 07:42:44;;;;;;;32.17;8.32;;;;;;;6.31;49.95;99357.97;4987275;28;20056;-55
2022/03/01 07:45:11;;;;;;;28.38;8.50;;;;;;;9.18;48.42;99350.59;4986785;28;20478;-54
2022/03/01 07:47:36;;;;;;;24.17;7.65;;;;;;;10.16;42.98;99345.56;4987163;28;20022;-54
2022/03/01 07:50:03;;;;;;;22.73;7.63;;;;;;;8.85;42.21;99344.94;4991108;28;20053;-55
2022/03/01 07:52:28;;;;;;;22.77;8.05;;;;;;;9.58;42.98;99347.41;5005816;28;20048;-56
2022/03/01 07:54:54;;;;;;;33.65;9.48;;;;;;;11.00;40.71;99350.94;5007669;28;20038;-54
2022/03/01 07:57:20;;;;;;;22.17;7.95;;;;;;;10.25;40.39;99349.75;5009055;28;21097;-53
2022/03/01 07:59:45;;;;;;;23.73;8.10;;;;;;;9.76;39.96;99352.31;5009481;28;20103;-55
2022/03/01 08:02:11;;;;;;;21.90;7.75;;;;;;;9.34;38.13;99349.50;5007618;28;20046;-57
2022/03/01 08:04:37;;;;;;;24.20;8.70;;;;;;;10.65;38.32;99338.63;5008939;28;20021;-55
2022/03/01 08:07:03;;;;;;;20.58;7.95;;;;;;;11.80;36.20;99341.28;5006549;28;20038;-54
2022/03/01 08:09:29;;;;;;;22.42;8.18;;;;;;;10.30;37.00;99338.34;5008084;28;20026;-54
2022/03/01 08:11:54;;;;;;;23.30;7.60;;;;;;;13.48;33.57;99331.41;5007724;28;20060;-54
2022/03/01 08:14:19;;;;;;;18.92;7.70;;;;;;;12.48;34.84;99329.97;5009481;28;20030;-53
2022/03/01 08:16:45;;;;;;;20.58;7.35;;;;;;;11.88;35.90;99343.72;5003766;28;20048;-54
2022/03/01 08:19:10;;;;;;;19.48;7.90;;;;;;;12.73;34.39;99342.34;5009394;28;20103;-53
2022/03/01 08:21:36;;;;;;;17.20;7.15;;;;;;;11.27;34.24;99335.56;5008316;28;20698;-53
2022/03/01 08:24:01;;;;;;;17.85;7.45;;;;;;;13.47;31.87;99332.31;5008816;28;20496;-55
2022/03/01 08:26:27;;;;;;;19.38;7.72;;;;;;;13.29;32.26;99331.97;5007766;28;20480;-54
2022/03/01 08:28:53;;;;;;;17.83;7.45;;;;;;;16.68;30.60;99332.44;5006632;28;20069;-55
2022/03/01 08:31:18;;;;;;;16.27;7.07;;;;;;;10.89;34.06;99342.47;5007681;28;21003;-55
2022/03/01 08:33:44;;;;;;;19.02;7.28;;;;;;;12.57;32.49;99327.97;5005419;28;20025;-54
2022/03/01 08:36:12;;;;;;;17.40;7.65;;;;;;;12.07;32.36;99329.28;5006004;28;20042;-54
2022/03/01 08:38:38;;;;;;;16.15;7.22;;;;;;;14.05;30.64;99327.78;5006403;28;20034;-54
2022/03/01 08:41:04;;;;;;;16.08;7.70;;;;;;;13.08;31.98;99333.47;5005938;28;20405;-59
2022/03/01 08:43:29;;;;;;;19.35;8.00;;;;;;;15.66;29.05;99327.13;5005278;28;20041;-54
2022/03/01 08:45:54;;;;;;;14.02;6.85;;;;;;;16.17;28.76;99323.28;5005651;28;20037;-55
2022/03/01 08:48:20;;;;;;;15.60;7.03;;;;;;;12.77;31.57;99333.50;5008685;28;20486;-54
2022/03/01 08:50:46;;;;;;;15.68;6.88;;;;;;;13.39;31.99;99329.09;5005831;28;20045;-55
2022/03/01 08:53:12;;;;;;;17.20;7.88;;;;;;;12.89;32.37;99330.53;5009748;28;20045;-53
2022/03/01 08:55:38;;;;;;;13.35;6.55;;;;;;;15.83;29.42;99311.53;5006012;28;20038;-54
2022/03/01 08:58:03;;;;;;;17.25;7.22;;;;;;;13.06;31.50;99308.22;5006092;28;20036;-53
2022/03/01 09:00:29;;;;;;;19.08;7.95;;;;;;;11.58;36.34;99315.66;5006749;28;20044;-55
2022/03/01 09:02:55;;;;;;;17.83;7.50;;;;;;;10.82;36.00;99315.63;5006425;28;20047;-54
2022/03/01 09:05:21;;;;;;;16.83;7.35;;;;;;;10.77;37.41;99323.56;5005279;28;20087;-53
2022/03/01 09:07:46;;;;;;;18.42;7.65;;;;;;;10.46;36.18;99312.00;5006604;28;20117;-55
2022/03/01 09:10:12;;;;;;;18.90;7.80;;;;;;;10.49;34.51;99302.38;5008435;28;20064;-55
2022/03/01 09:12:37;;;;;;;17.42;7.53;;;;;;;10.17;35.50;99300.38;5008724;28;20084;-54
2022/03/01 09:15:04;;;;;;;18.77;7.72;;;;;;;10.50;34.66;99300.66;5005674;28;20048;-55
2022/03/01 09:17:30;;;;;;;18.40;7.05;;;;;;;14.42;31.27;99292.38;5005957;28;20080;-54
2022/03/01 09:19:55;;;;;;;18.98;7.45;;;;;;;15.83;29.00;99287.88;5007237;28;20365;-55
2022/03/01 09:22:21;;;;;;;19.10;7.22;;;;;;;12.90;30.80;99290.34;5005207;28;20096;-55
2022/03/01 09:24:46;;;;;;;18.40;6.90;;;;;;;13.45;31.27;99292.19;5006792;28;20049;-54
2022/03/01 09:27:12;;;;;;;15.55;6.30;;;;;;;11.58;30.65;99273.84;5006378;28;20424;-54
2022/03/01 09:29:37;;;;;;;14.32;6.25;;;;;;;12.47;31.36;99283.72;5008079;28;20029;-55
2022/03/01 09:32:03;;;;;;;14.48;6.35;;;;;;;13.10;34.03;99284.53;5007808;28;20601;-55
2022/03/01 09:34:29;;;;;;;16.65;6.35;;;;;;;12.19;31.13;99277.56;5005258;28;20237;-54
2022/03/01 09:36:54;;;;;;;17.08;6.65;;;;;;;11.60;31.48;99280.78;5004828;28;20454;-55
2022/03/01 09:39:21;;;;;;;15.73;6.50;;;;;;;13.05;29.94;99281.19;5006273;28;20068;-53
2022/03/01 09:41:47;;;;;;;21.98;6.82;;;;;;;11.72;31.33;99277.88;5005400;28;20033;-55
2022/03/01 09:44:13;;;;;;;16.92;6.30;;;;;;;11.09;32.00;99279.38;5006821;28;20056;-54
2022/03/01 09:46:38;;;;;;;20.15;6.97;;;;;;;10.98;31.88;99274.41;5003757;28;20041;-55
2022/03/01 09:49:05;;;;;;;16.20;6.10;;;;;;;10.80;32.69;99263.44;5004997;28;20404;-54
2022/03/01 09:51:31;;;;;;;21.05;7.05;;;;;;;12.09;31.10;99256.91;5005784;28;20042;-54
2022/03/01 09:53:57;;;;;;;20.40;7.30;;;;;;;10.83;32.22;99262.53;5007533;28;20064;-56
2022/03/01 09:56:22;;;;;;;15.93;6.30;;;;;;;10.56;32.51;99254.41;5003747;28;20429;-55
2022/03/01 09:58:50;;;;;;;22.27;7.05;;;;;;;11.56;34.13;99256.47;5005894;28;20416;-55
2022/03/01 10:01:16;;;;;;;19.92;7.13;;;;;;;12.58;30.79;99248.56;5007831;28;20037;-55
2022/03/01 10:03:48;;;;;;;18.67;6.45;;;;;;;10.43;32.21;99259.91;5007359;28;20105;-55
2022/03/01 10:06:15;;;;;;;20.05;7.30;;;;;;;12.65;32.28;99247.47;5007959;28;20038;-55
2022/03/01 10:08:41;;;;;;;17.83;6.15;;;;;;;12.46;31.34;99245.41;5005996;28;20504;-56
2022/03/01 10:11:07;;;;;;;15.25;6.38;;;;;;;12.29;31.78;99247.63;5005315;28;20779;-54
2022/03/01 10:13:35;;;;;;;15.25;5.95;;;;;;;11.95;31.20;99249.41;5003075;28;20014;-54
2022/03/01 10:16:07;;;;;;;20.73;7.28;;;;;;;12.73;31.36;99245.47;5005731;28;20519;-54
2022/03/01 10:18:35;;;;;;;17.63;6.55;;;;;;;10.97;32.31;99247.44;5003907;28;20040;-56
2022/03/01 10:21:09;;;;;;;16.63;6.18;;;;;;;13.23;32.27;99248.31;5005192;28;20052;-54
2022/03/01 10:23:35;;;;;;;20.42;6.90;;;;;;;12.59;30.14;99237.16;5005276;28;20064;-54
2022/03/01 10:26:14;;;;;;;18.35;6.95;;;;;;;11.23;31.08;99242.47;5004646;28;20144;-55
2022/03/01 10:28:40;;;;;;;16.17;6.18;;;;;;;11.78;31.87;99233.25;5004763;28;20021;-54
2022/03/01 10:31:17;;;;;;;18.67;6.60;;;;;;;13.63;29.80;99235.69;5004256;28;20064;-60
2022/03/01 10:34:08;;;;;;;15.80;6.20;;;;;;;12.38;30.68;99234.28;5004941;28;20419;-55
2022/03/01 10:36:40;;;;;;;18.50;6.47;;;;;;;10.93;30.78;99235.31;5005085;28;20067;-54
2022/03/01 10:39:09;;;;;;;21.80;6.93;;;;;;;11.50;31.94;99228.75;5001645;28;20033;-54
2022/03/01 10:41:38;;;;;;;14.98;6.03;;;;;;;11.83;33.03;99222.69;5006633;28;20037;-55
2022/03/01 10:44:05;;;;;;;17.05;6.32;;;;;;;13.85;44.41;99225.31;5002828;28;20128;-55
2022/03/01 10:46:37;;;;;;;18.25;6.30;;;;;;;13.60;40.19;99223.56;5003987;28;20176;-55
2022/03/01 10:49:10;;;;;;;16.30;6.05;;;;;;;11.22;35.30;99218.13;5003155;28;20115;-54
2022/03/01 10:51:53;;;;;;;14.70;5.95;;;;;;;14.19;59.62;99214.50;5002989;28;20385;-56
2022/03/01 10:54:34;;;;;;;14.38;5.47;;;;;;;14.02;51.84;99212.47;5002407;28;21012;-56
2022/03/01 10:57:02;;;;;;;15.52;6.15;;;;;;;13.17;40.70;99206.56;5003908;28;20076;-56
2022/03/01 10:59:29;;;;;;;14.13;5.97;;;;;;;13.55;48.15;99201.03;5003666;28;20068;-55
2022/03/01 11:01:56;;;;;;;15.20;6.07;;;;;;;11.88;33.21;99186.84;5005537;28;20508;-56
2022/03/01 11:04:24;;;;;;;22.80;5.90;;;;;;;14.39;37.09;99182.25;5004162;28;20504;-55
2022/03/01 11:06:50;;;;;;;15.77;6.20;;;;;;;12.51;31.84;99180.66;5003443;28;20101;-55
2022/03/01 11:09:16;;;;;;;17.42;6.30;;;;;;;12.24;37.81;99176.25;5003211;28;20552;-55
2022/03/01 11:11:43;;;;;;;17.00;6.63;;;;;;;11.18;33.52;99172.09;5002356;28;20059;-55
2022/03/01 11:14:13;;;;;;;19.30;6.22;;;;;;;13.36;33.42;99170.19;5004028;28;20033;-56
2022/03/01 11:17:03;;;;;;;16.42;6.25;;;;;;;12.83;37.66;99175.34;5003842;28;20045;-55